sensor_id;sensor_type;location;lat;lon;timestamp;pressure;altitude;pressure_sealevel;temperature;humidity
57568;BME280;43403;51.948;5.922;2023-03-17T00:01:49;100822.34;;;8.69;79.92
57568;BME280;43403;51.948;5.922;2023-03-17T00:04:21;100822.47;;;8.68;79.99
57568;BME280;43403;51.948;5.922;2023-03-17T00:06:48;100817.22;;;8.68;80.84
57568;BME280;43403;51.948;5.922;2023-03-17T00:09:16;100811.19;;;8.67;80.91
57568;BME280;43403;51.948;5.922;2023-03-17T00:11:44;100808.13;;;8.62;80.68
57568;BME280;43403;51.948;5.922;2023-03-17T00:14:11;100811.44;;;8.64;81.31
57568;BME280;43403;51.948;5.922;2023-03-17T00:16:40;100824.78;;;8.61;81.20
57568;BME280;43403;51.948;5.922;2023-03-17T00:19:15;100826.72;;;8.59;79.69
57568;BME280;43403;51.948;5.922;2023-03-17T00:21:43;100841.72;;;8.57;80.51
57568;BME280;43403;51.948;5.922;2023-03-17T00:24:11;100834.28;;;8.62;81.04
57568;BME280;43403;51.948;5.922;2023-03-17T00:26:41;100819.81;;;8.58;80.03
57568;BME280;43403;51.948;5.922;2023-03-17T00:29:08;100813.91;;;8.56;82.22
57568;BME280;43403;51.948;5.922;2023-03-17T00:31:35;100802.63;;;8.56;81.10
57568;BME280;43403;51.948;5.922;2023-03-17T00:34:03;100810.59;;;8.54;82.36
57568;BME280;43403;51.948;5.922;2023-03-17T00:36:32;100785.41;;;8.53;81.67
57568;BME280;43403;51.948;5.922;2023-03-17T00:38:59;100793.53;;;8.50;81.82
57568;BME280;43403;51.948;5.922;2023-03-17T00:41:25;100796.53;;;8.45;82.64
57568;BME280;43403;51.948;5.922;2023-03-17T00:43:52;100796.47;;;8.36;82.46
57568;BME280;43403;51.948;5.922;2023-03-17T00:46:27;100795.38;;;8.38;82.06
57568;BME280;43403;51.948;5.922;2023-03-17T00:49:02;100786.16;;;8.34;81.73
57568;BME280;43403;51.948;5.922;2023-03-17T00:51:30;100785.22;;;8.35;83.53
57568;BME280;43403;51.948;5.922;2023-03-17T00:53:57;100794.25;;;8.31;82.83
57568;BME280;43403;51.948;5.922;2023-03-17T00:56:24;100794.13;;;8.32;83.25
57568;BME280;43403;51.948;5.922;2023-03-17T00:58:50;100796.16;;;8.29;82.91
57568;BME280;43403;51.948;5.922;2023-03-17T01:01:17;100792.84;;;8.27;82.92
57568;BME280;43403;51.948;5.922;2023-03-17T01:03:44;100805.66;;;8.30;82.81
57568;BME280;43403;51.948;5.922;2023-03-17T01:06:12;100788.31;;;8.29;83.50
57568;BME280;43403;51.948;5.922;2023-03-17T01:08:42;100784.06;;;8.28;84.49
57568;BME280;43403;51.948;5.922;2023-03-17T01:11:15;100778.03;;;8.27;83.44
57568;BME280;43403;51.948;5.922;2023-03-17T01:13:45;100778.28;;;8.24;83.36
57568;BME280;43403;51.948;5.922;2023-03-17T01:16:13;100773.88;;;8.25;83.31
57568;BME280;43403;51.948;5.922;2023-03-17T01:18:41;100772.34;;;8.22;83.51
57568;BME280;43403;51.948;5.922;2023-03-17T01:21:08;100766.44;;;8.20;82.50
57568;BME280;43403;51.948;5.922;2023-03-17T01:23:35;100772.47;;;8.21;82.65
57568;BME280;43403;51.948;5.922;2023-03-17T01:26:02;100763.94;;;8.19;82.72
57568;BME280;43403;51.948;5.922;2023-03-17T01:28:29;100772.88;;;8.16;84.10
57568;BME280;43403;51.948;5.922;2023-03-17T01:30:55;100766.28;;;8.12;83.97
57568;BME280;43403;51.948;5.922;2023-03-17T01:33:22;100773.66;;;8.07;83.16
57568;BME280;43403;51.948;5.922;2023-03-17T01:35:50;100774.66;;;8.06;83.03
57568;BME280;43403;51.948;5.922;2023-03-17T01:38:17;100770.38;;;8.05;82.89
57568;BME280;43403;51.948;5.922;2023-03-17T01:40:47;100770.75;;;8.00;84.19
57568;BME280;43403;51.948;5.922;2023-03-17T01:49:10;100766.31;;;7.91;89.04
57568;BME280;43403;51.948;5.922;2023-03-17T01:51:58;100755.56;;;7.84;89.97
57568;BME280;43403;51.948;5.922;2023-03-17T01:54:34;100752.63;;;7.78;89.71
57568;BME280;43403;51.948;5.922;2023-03-17T01:57:13;100759.66;;;7.77;89.46
57568;BME280;43403;51.948;5.922;2023-03-17T01:59:51;100756.59;;;7.72;88.32
57568;BME280;43403;51.948;5.922;2023-03-17T02:02:23;100747.50;;;7.66;90.06
57568;BME280;43403;51.948;5.922;2023-03-17T02:04:51;100756.53;;;7.62;90.46
57568;BME280;43403;51.948;5.922;2023-03-17T02:07:19;100752.41;;;7.60;93.01
57568;BME280;43403;51.948;5.922;2023-03-17T02:09:47;100749.34;;;7.55;93.31
57568;BME280;43403;51.948;5.922;2023-03-17T02:12:14;100742.03;;;7.48;92.47
57568;BME280;43403;51.948;5.922;2023-03-17T02:14:41;100734.59;;;7.44;93.66
57568;BME280;43403;51.948;5.922;2023-03-17T02:17:08;100731.53;;;7.39;94.70
57568;BME280;43403;51.948;5.922;2023-03-17T02:19:35;100739.75;;;7.34;95.82
57568;BME280;43403;51.948;5.922;2023-03-17T02:22:01;100733.94;;;7.30;95.72
57568;BME280;43403;51.948;5.922;2023-03-17T02:24:33;100735.97;;;7.27;95.68
57568;BME280;43403;51.948;5.922;2023-03-17T02:27:09;100732.09;;;7.21;96.28
57568;BME280;43403;51.948;5.922;2023-03-17T02:29:38;100723.16;;;7.14;96.54
57568;BME280;43403;51.948;5.922;2023-03-17T02:32:05;100725.06;;;7.12;96.42
57568;BME280;43403;51.948;5.922;2023-03-17T02:34:32;100720.91;;;7.09;97.43
57568;BME280;43403;51.948;5.922;2023-03-17T02:36:59;100722.69;;;7.09;95.74
57568;BME280;43403;51.948;5.922;2023-03-17T02:39:25;100721.88;;;7.08;96.43
57568;BME280;43403;51.948;5.922;2023-03-17T02:41:52;100726.50;;;7.05;97.82
57568;BME280;43403;51.948;5.922;2023-03-17T02:44:19;100722.25;;;7.04;96.88
57568;BME280;43403;51.948;5.922;2023-03-17T02:46:46;100722.50;;;7.01;97.83
57568;BME280;43403;51.948;5.922;2023-03-17T02:49:13;100724.28;;;7.00;99.40
57568;BME280;43403;51.948;5.922;2023-03-17T02:51:40;100719.56;;;6.94;98.08
57568;BME280;43403;51.948;5.922;2023-03-17T02:54:07;100717.19;;;6.91;99.14
57568;BME280;43403;51.948;5.922;2023-03-17T02:56:34;100721.41;;;6.82;99.78
57568;BME280;43403;51.948;5.922;2023-03-17T02:59:01;100715.31;;;6.82;100.00
57568;BME280;43403;51.948;5.922;2023-03-17T03:01:28;100710.63;;;6.76;100.00
57568;BME280;43403;51.948;5.922;2023-03-17T03:03:56;100712.53;;;6.73;100.00
57568;BME280;43403;51.948;5.922;2023-03-17T03:06:23;100707.56;;;6.70;100.00
57568;BME280;43403;51.948;5.922;2023-03-17T03:08:51;100711.69;;;6.73;100.00
57568;BME280;43403;51.948;5.922;2023-03-17T03:11:17;100713.50;;;6.72;100.00
57568;BME280;43403;51.948;5.922;2023-03-17T03:13:45;100728.16;;;6.73;100.00
57568;BME280;43403;51.948;5.922;2023-03-17T03:16:12;100722.13;;;6.73;100.00
57568;BME280;43403;51.948;5.922;2023-03-17T03:18:39;100720.47;;;6.72;100.00
57568;BME280;43403;51.948;5.922;2023-03-17T03:21:06;100711.81;;;6.71;100.00
57568;BME280;43403;51.948;5.922;2023-03-17T03:23:33;100705.66;;;6.72;99.37
57568;BME280;43403;51.948;5.922;2023-03-17T03:25:59;100699.50;;;6.73;99.51
57568;BME280;43403;51.948;5.922;2023-03-17T03:28:26;100698.41;;;6.76;100.00
57568;BME280;43403;51.948;5.922;2023-03-17T03:30:53;100703.38;;;6.79;97.92
57568;BME280;43403;51.948;5.922;2023-03-17T03:33:19;100706.69;;;6.81;96.38
57568;BME280;43403;51.948;5.922;2023-03-17T03:35:46;100712.38;;;6.86;97.48
57568;BME280;43403;51.948;5.922;2023-03-17T03:38:13;100714.81;;;6.88;97.69
57568;BME280;43403;51.948;5.922;2023-03-17T03:40:39;100712.38;;;6.86;100.00
57568;BME280;43403;51.948;5.922;2023-03-17T03:43:06;100723.72;;;6.85;99.62
57568;BME280;43403;51.948;5.922;2023-03-17T03:45:48;100712.38;;;6.86;100.00
57568;BME280;43403;51.948;5.922;2023-03-17T03:48:14;100725.25;;;6.88;97.51
57568;BME280;43403;51.948;5.922;2023-03-17T03:50:41;100711.03;;;6.92;97.21
57568;BME280;43403;51.948;5.922;2023-03-17T03:53:08;100714.09;;;6.97;96.68
57568;BME280;43403;51.948;5.922;2023-03-17T03:55:35;100720.97;;;6.98;96.74
57568;BME280;43403;51.948;5.922;2023-03-17T03:58:01;100714.78;;;6.99;95.46
57568;BME280;43403;51.948;5.922;2023-03-17T04:00:28;100722.50;;;7.01;95.36
57568;BME280;43403;51.948;5.922;2023-03-17T04:02:55;100721.91;;;6.97;97.83
57568;BME280;43403;51.948;5.922;2023-03-17T04:05:22;100713.66;;;6.92;100.00
57568;BME280;43403;51.948;5.922;2023-03-17T04:07:48;100711.97;;;6.91;99.85
57568;BME280;43403;51.948;5.922;2023-03-17T04:10:16;100722.53;;;6.89;99.26
57568;BME280;43403;51.948;5.922;2023-03-17T04:12:43;100732.84;;;6.91;99.10
57568;BME280;43403;51.948;5.922;2023-03-17T04:15:13;100732.03;;;6.90;98.31
57568;BME280;43403;51.948;5.922;2023-03-17T04:17:40;100724.44;;;6.87;100.00
57568;BME280;43403;51.948;5.922;2023-03-17T04:20:08;100728.50;;;6.80;100.00
57568;BME280;43403;51.948;5.922;2023-03-17T04:22:35;100727.06;;;6.76;99.72
57568;BME280;43403;51.948;5.922;2023-03-17T04:25:02;100738.72;;;6.72;100.00
57568;BME280;43403;51.948;5.922;2023-03-17T04:27:28;100740.59;;;6.70;100.00
57568;BME280;43403;51.948;5.922;2023-03-17T04:29:55;100743.22;;;6.70;98.83
57568;BME280;43403;51.948;5.922;2023-03-17T04:32:21;100737.69;;;6.63;100.00
57568;BME280;43403;51.948;5.922;2023-03-17T04:34:50;100736.00;;;6.62;98.96
57568;BME280;43403;51.948;5.922;2023-03-17T04:37:17;100730.34;;;6.68;98.73
57568;BME280;43403;51.948;5.922;2023-03-17T04:39:44;100729.25;;;6.71;100.00
57568;BME280;43403;51.948;5.922;2023-03-17T04:42:10;100721.03;;;6.76;100.00
57568;BME280;43403;51.948;5.922;2023-03-17T04:44:37;100730.38;;;6.78;98.17
57568;BME280;43403;51.948;5.922;2023-03-17T04:47:04;100734.44;;;6.82;97.14
57568;BME280;43403;51.948;5.922;2023-03-17T04:49:30;100728.00;;;6.86;95.76
57568;BME280;43403;51.948;5.922;2023-03-17T04:51:57;100735.44;;;6.91;96.38
57568;BME280;43403;51.948;5.922;2023-03-17T04:54:24;100734.25;;;6.95;94.79
57568;BME280;43403;51.948;5.922;2023-03-17T04:56:50;100725.22;;;6.99;93.91
57568;BME280;43403;51.948;5.922;2023-03-17T04:59:17;100733.03;;;6.99;93.17
57568;BME280;43403;51.948;5.922;2023-03-17T05:01:44;100737.44;;;6.99;93.63
57568;BME280;43403;51.948;5.922;2023-03-17T05:04:11;100736.63;;;6.98;93.40
57568;BME280;43403;51.948;5.922;2023-03-17T05:06:55;100734.00;;;6.98;92.65
57568;BME280;43403;51.948;5.922;2023-03-17T05:09:24;100740.16;;;6.97;94.51
57568;BME280;43403;51.948;5.922;2023-03-17T05:11:51;100744.09;;;6.91;93.89
57568;BME280;43403;51.948;5.922;2023-03-17T05:14:17;100736.84;;;6.95;94.89
57568;BME280;43403;51.948;5.922;2023-03-17T05:16:47;100734.00;;;6.98;95.15
57568;BME280;43403;51.948;5.922;2023-03-17T05:19:15;100737.31;;;7.00;95.02
57568;BME280;43403;51.948;5.922;2023-03-17T05:21:42;100738.03;;;7.02;93.25
57568;BME280;43403;51.948;5.922;2023-03-17T05:24:09;100738.03;;;7.02;93.37
57568;BME280;43403;51.948;5.922;2023-03-17T05:26:36;100732.69;;;7.04;93.23
57568;BME280;43403;51.948;5.922;2023-03-17T05:29:03;100726.25;;;7.08;92.86
57568;BME280;43403;51.948;5.922;2023-03-17T05:31:30;100725.16;;;7.10;93.25
57568;BME280;43403;51.948;5.922;2023-03-17T05:33:57;100714.63;;;7.12;92.37
57568;BME280;43403;51.948;5.922;2023-03-17T05:36:24;100719.25;;;7.08;91.73
57568;BME280;43403;51.948;5.922;2023-03-17T05:38:50;100712.38;;;7.07;92.72
57568;BME280;43403;51.948;5.922;2023-03-17T05:41:17;100718.28;;;7.09;93.53
57568;BME280;43403;51.948;5.922;2023-03-17T05:43:44;100718.44;;;7.08;92.98
57568;BME280;43403;51.948;5.922;2023-03-17T05:46:11;100726.25;;;7.08;93.37
57568;BME280;43403;51.948;5.922;2023-03-17T05:48:39;100722.94;;;7.06;92.07
57568;BME280;43403;51.948;5.922;2023-03-17T05:51:06;100728.88;;;7.08;92.23
57568;BME280;43403;51.948;5.922;2023-03-17T05:53:33;100722.09;;;7.05;93.08
57568;BME280;43403;51.948;5.922;2023-03-17T05:56:02;100715.13;;;7.06;92.00
57568;BME280;43403;51.948;5.922;2023-03-17T05:58:28;100715.94;;;7.06;92.43
57568;BME280;43403;51.948;5.922;2023-03-17T06:00:55;100707.41;;;7.04;92.03
57568;BME280;43403;51.948;5.922;2023-03-17T06:03:22;100713.47;;;7.05;93.79
57568;BME280;43403;51.948;5.922;2023-03-17T06:05:48;100712.53;;;7.06;93.04
57568;BME280;43403;51.948;5.922;2023-03-17T06:08:15;100710.47;;;7.09;92.81
57568;BME280;43403;51.948;5.922;2023-03-17T06:10:42;100716.53;;;7.10;95.53
57568;BME280;43403;51.948;5.922;2023-03-17T06:13:09;100709.63;;;7.09;93.90
57568;BME280;43403;51.948;5.922;2023-03-17T06:15:36;100709.81;;;7.17;92.45
57568;BME280;43403;51.948;5.922;2023-03-17T06:18:03;100720.41;;;7.16;93.03
57568;BME280;43403;51.948;5.922;2023-03-17T06:20:33;100716.59;;;7.20;93.55
57568;BME280;43403;51.948;5.922;2023-03-17T06:23:00;100714.81;;;7.20;92.49
57568;BME280;43403;51.948;5.922;2023-03-17T06:25:34;100718.13;;;7.22;92.03
57568;BME280;43403;51.948;5.922;2023-03-17T06:28:01;100717.88;;;7.25;92.51
57568;BME280;43403;51.948;5.922;2023-03-17T06:30:30;100718.94;;;7.23;91.48
57568;BME280;43403;51.948;5.922;2023-03-17T06:32:58;100709.91;;;7.27;91.83
57568;BME280;43403;51.948;5.922;2023-03-17T06:35:25;100710.03;;;7.25;92.23
57568;BME280;43403;51.948;5.922;2023-03-17T06:37:55;100714.56;;;7.23;91.44
57568;BME280;43403;51.948;5.922;2023-03-17T06:40:22;100710.97;;;7.24;92.42
57568;BME280;43403;51.948;5.922;2023-03-17T06:42:49;100719.38;;;7.28;92.01
57568;BME280;43403;51.948;5.922;2023-03-17T06:45:16;100717.72;;;7.27;93.64
57568;BME280;43403;51.948;5.922;2023-03-17T06:47:43;100717.22;;;7.33;92.39
57568;BME280;43403;51.948;5.922;2023-03-17T06:50:10;100721.38;;;7.36;92.32
57568;BME280;43403;51.948;5.922;2023-03-17T06:52:38;100718.19;;;7.32;92.38
57568;BME280;43403;51.948;5.922;2023-03-17T06:55:07;100719.00;;;7.32;92.90
57568;BME280;43403;51.948;5.922;2023-03-17T06:57:35;100722.31;;;7.35;93.34
57568;BME280;43403;51.948;5.922;2023-03-17T07:00:03;100721.94;;;7.39;93.85
57568;BME280;43403;51.948;5.922;2023-03-17T07:02:32;100707.91;;;7.40;nan
57568;BME280;43403;51.948;5.922;2023-03-17T07:05:01;100716.91;;;7.47;92.35
57568;BME280;43403;51.948;5.922;2023-03-17T07:07:29;100709.38;;;7.54;92.03
57568;BME280;43403;51.948;5.922;2023-03-17T07:09:55;100714.34;;;7.57;91.74
57568;BME280;43403;51.948;5.922;2023-03-17T07:12:22;100713.00;;;7.63;91.91
57568;BME280;43403;51.948;5.922;2023-03-17T07:14:49;100714.97;;;7.70;90.35
57568;BME280;43403;51.948;5.922;2023-03-17T07:17:15;100719.91;;;7.73;90.66
57568;BME280;43403;51.948;5.922;2023-03-17T07:19:42;100720.22;;;7.80;91.78
57568;BME280;43403;51.948;5.922;2023-03-17T07:22:11;100724.09;;;7.86;90.29
57568;BME280;43403;51.948;5.922;2023-03-17T07:24:38;100730.72;;;7.90;91.31
57568;BME280;43403;51.948;5.922;2023-03-17T07:27:05;100730.88;;;7.98;90.25
57568;BME280;43403;51.948;5.922;2023-03-17T07:29:32;100729.09;;;7.99;89.68
57568;BME280;43403;51.948;5.922;2023-03-17T07:32:00;100734.06;;;8.02;89.89
57568;BME280;43403;51.948;5.922;2023-03-17T07:34:27;100730.06;;;8.07;88.99
57568;BME280;43403;51.948;5.922;2023-03-17T07:36:56;100729.56;;;8.14;88.94
57568;BME280;43403;51.948;5.922;2023-03-17T07:39:23;100721.31;;;8.18;89.95
57568;BME280;43403;51.948;5.922;2023-03-17T07:41:50;100722.28;;;8.27;89.60
57568;BME280;43403;51.948;5.922;2023-03-17T07:44:21;100730.31;;;8.35;89.37
57568;BME280;43403;51.948;5.922;2023-03-17T07:46:52;100722.06;;;8.40;87.88
57568;BME280;43403;51.948;5.922;2023-03-17T07:49:19;100733.94;;;8.54;86.70
57568;BME280;43403;51.948;5.922;2023-03-17T07:52:06;100724.88;;;8.58;85.83
57568;BME280;43403;51.948;5.922;2023-03-17T07:54:34;100721.84;;;8.62;85.45
57568;BME280;43403;51.948;5.922;2023-03-17T07:57:02;100722.81;;;8.71;86.89
57568;BME280;43403;51.948;5.922;2023-03-17T07:59:28;100719.78;;;8.76;84.80
57568;BME280;43403;51.948;5.922;2023-03-17T08:01:56;100710.31;;;8.84;86.26
57568;BME280;43403;51.948;5.922;2023-03-17T08:04:24;100705.06;;;8.94;84.67
57568;BME280;43403;51.948;5.922;2023-03-17T08:06:52;100711.69;;;8.98;83.81
57568;BME280;43403;51.948;5.922;2023-03-17T08:09:20;100713.59;;;9.06;82.71
57568;BME280;43403;51.948;5.922;2023-03-17T08:11:49;100707.00;;;9.12;82.97
57568;BME280;43403;51.948;5.922;2023-03-17T08:14:16;100694.72;;;9.22;84.29
57568;BME280;43403;51.948;5.922;2023-03-17T08:16:42;100695.09;;;9.27;82.12
57568;BME280;43403;51.948;5.922;2023-03-17T08:19:09;100694.00;;;9.29;82.64
57568;BME280;43403;51.948;5.922;2023-03-17T08:21:36;100688.91;;;9.38;81.57
57568;BME280;43403;51.948;5.922;2023-03-17T08:24:03;100686.53;;;9.44;80.71
57568;BME280;43403;51.948;5.922;2023-03-17T08:26:30;100690.66;;;9.47;80.77
57568;BME280;43403;51.948;5.922;2023-03-17T08:28:57;100693.38;;;9.55;82.40
57568;BME280;43403;51.948;5.922;2023-03-17T08:31:24;100700.84;;;9.50;79.09
57568;BME280;43403;51.948;5.922;2023-03-17T08:33:52;100712.41;;;9.57;80.75
57568;BME280;43403;51.948;5.922;2023-03-17T08:36:19;100714.59;;;9.62;79.01
57568;BME280;43403;51.948;5.922;2023-03-17T08:38:47;100717.22;;;9.62;79.80
57568;BME280;43403;51.948;5.922;2023-03-17T08:41:16;100707.94;;;9.67;78.24
57568;BME280;43403;51.948;5.922;2023-03-17T08:43:44;100700.78;;;9.69;79.38
57568;BME280;43403;51.948;5.922;2023-03-17T08:46:24;100698.13;;;9.79;79.06
57568;BME280;43403;51.948;5.922;2023-03-17T08:48:53;100697.84;;;9.82;79.99
57568;BME280;43403;51.948;5.922;2023-03-17T08:51:23;100706.63;;;9.91;80.10
57568;BME280;43403;51.948;5.922;2023-03-17T08:53:51;100708.13;;;9.94;78.15
57568;BME280;43403;51.948;5.922;2023-03-17T08:56:18;100707.03;;;9.96;78.00
57568;BME280;43403;51.948;5.922;2023-03-17T08:58:45;100700.06;;;10.05;78.23
57568;BME280;43403;51.948;5.922;2023-03-17T09:01:13;100696.72;;;10.13;79.59
57568;BME280;43403;51.948;5.922;2023-03-17T09:03:41;100693.50;;;10.19;77.33
57568;BME280;43403;51.948;5.922;2023-03-17T09:06:08;100699.00;;;10.25;77.07
57568;BME280;43403;51.948;5.922;2023-03-17T09:08:38;100701.59;;;10.35;76.32
57568;BME280;43403;51.948;5.922;2023-03-17T09:11:06;100708.88;;;10.41;75.69
57568;BME280;43403;51.948;5.922;2023-03-17T09:13:34;100693.34;;;10.48;76.59
57568;BME280;43403;51.948;5.922;2023-03-17T09:16:01;100688.19;;;10.56;75.19
57568;BME280;43403;51.948;5.922;2023-03-17T09:18:28;100692.53;;;10.65;75.75
57568;BME280;43403;51.948;5.922;2023-03-17T09:20:56;100705.31;;;10.78;74.75
57568;BME280;43403;51.948;5.922;2023-03-17T09:23:23;100696.81;;;10.84;73.66
57568;BME280;43403;51.948;5.922;2023-03-17T09:25:50;100692.50;;;11.01;73.91
57568;BME280;43403;51.948;5.922;2023-03-17T09:28:18;100690.66;;;11.12;74.30
57568;BME280;43403;51.948;5.922;2023-03-17T09:30:44;100703.50;;;11.23;71.18
57568;BME280;43403;51.948;5.922;2023-03-17T09:33:12;100710.09;;;11.27;71.50
57568;BME280;43403;51.948;5.922;2023-03-17T09:35:39;100706.34;;;11.30;70.61
57568;BME280;43403;51.948;5.922;2023-03-17T09:38:07;100712.78;;;11.35;71.42
57568;BME280;43403;51.948;5.922;2023-03-17T09:40:46;100716.13;;;11.45;71.90
57568;BME280;43403;51.948;5.922;2023-03-17T09:43:27;100707.53;;;11.61;71.14
57568;BME280;43403;51.948;5.922;2023-03-17T09:46:01;100701.50;;;11.69;69.24
57568;BME280;43403;51.948;5.922;2023-03-17T09:51:13;100699.59;;;12.14;70.38
57568;BME280;43403;51.948;5.922;2023-03-17T09:54:00;100699.44;;;12.23;67.59
57568;BME280;43403;51.948;5.922;2023-03-17T09:56:30;100690.41;;;12.34;68.69
57568;BME280;43403;51.948;5.922;2023-03-17T09:59:06;100698.81;;;12.46;67.00
57568;BME280;43403;51.948;5.922;2023-03-17T10:01:38;100695.91;;;12.65;68.51
57568;BME280;43403;51.948;5.922;2023-03-17T10:04:09;100700.84;;;12.77;67.18
57568;BME280;43403;51.948;5.922;2023-03-17T10:06:41;100709.91;;;12.99;67.46
57568;BME280;43403;51.948;5.922;2023-03-17T10:09:17;100713.66;;;13.13;67.35
57568;BME280;43403;51.948;5.922;2023-03-17T10:11:49;100703.63;;;13.33;67.86
57568;BME280;43403;51.948;5.922;2023-03-17T10:14:26;100703.78;;;13.48;65.86
57568;BME280;43403;51.948;5.922;2023-03-17T10:17:11;100702.22;;;13.70;66.02
57568;BME280;43403;51.948;5.922;2023-03-17T10:22:29;100694.63;;;13.83;63.34
57568;BME280;43403;51.948;5.922;2023-03-17T10:25:03;100695.72;;;13.97;64.30
57568;BME280;43403;51.948;5.922;2023-03-17T10:27:34;100695.81;;;14.12;64.26
57568;BME280;43403;51.948;5.922;2023-03-17T10:30:04;100691.97;;;14.22;63.58
57568;BME280;43403;51.948;5.922;2023-03-17T10:32:35;100695.66;;;14.36;62.37
57568;BME280;43403;51.948;5.922;2023-03-17T10:35:03;100690.69;;;14.41;60.76
57568;BME280;43403;51.948;5.922;2023-03-17T10:37:30;100712.78;;;14.49;59.83
57568;BME280;43403;51.948;5.922;2023-03-17T10:40:05;100707.94;;;14.60;60.97
57568;BME280;43403;51.948;5.922;2023-03-17T10:42:45;100705.91;;;14.86;62.82
57568;BME280;43403;51.948;5.922;2023-03-17T10:45:15;100711.66;;;14.89;58.27
57568;BME280;43403;51.948;5.922;2023-03-17T10:47:46;100708.16;;;14.97;59.76
57568;BME280;43403;51.948;5.922;2023-03-17T10:50:25;100712.72;;;15.03;58.37
57568;BME280;43403;51.948;5.922;2023-03-17T10:55:42;100706.03;;;15.15;58.38
57568;BME280;43403;51.948;5.922;2023-03-17T10:58:17;100712.19;;;15.08;58.19
57568;BME280;43403;51.948;5.922;2023-03-17T11:00:56;100709.19;;;15.11;58.58
57568;BME280;43403;51.948;5.922;2023-03-17T11:03:26;100704.03;;;15.17;59.53
57568;BME280;43403;51.948;5.922;2023-03-17T11:05:57;100707.78;;;15.23;59.51
57568;BME280;43403;51.948;5.922;2023-03-17T11:08:30;100712.97;;;15.31;58.53
57568;BME280;43403;51.948;5.922;2023-03-17T11:10:57;100701.63;;;15.22;57.08
57568;BME280;43403;51.948;5.922;2023-03-17T11:13:28;100700.28;;;15.27;57.64
57568;BME280;43403;51.948;5.922;2023-03-17T11:16:19;100702.13;;;15.41;58.87
57568;BME280;43403;51.948;5.922;2023-03-17T11:18:55;100713.78;;;15.32;56.86
57568;BME280;43403;51.948;5.922;2023-03-17T11:21:29;100703.03;;;15.48;57.92
57568;BME280;43403;51.948;5.922;2023-03-17T11:24:08;100714.16;;;15.43;56.24
57568;BME280;43403;51.948;5.922;2023-03-17T11:32:08;100710.97;;;15.33;57.73
57568;BME280;43403;51.948;5.922;2023-03-17T11:48:22;100694.59;;;15.00;59.02
57568;BME280;43403;51.948;5.922;2023-03-17T11:51:13;100680.03;;;15.19;58.44
57568;BME280;43403;51.948;5.922;2023-03-17T11:54:02;100683.53;;;15.64;57.68
57568;BME280;43403;51.948;5.922;2023-03-17T11:56:46;100673.72;;;15.73;57.59
57568;BME280;43403;51.948;5.922;2023-03-17T12:05:08;100674.06;;;15.99;56.30
57568;BME280;43403;51.948;5.922;2023-03-17T12:08:08;100675.16;;;16.27;57.36
57568;BME280;43403;51.948;5.922;2023-03-17T12:10:48;100671.25;;;16.44;56.98
57568;BME280;43403;51.948;5.922;2023-03-17T12:13:21;100670.19;;;16.60;56.89
57568;BME280;43403;51.948;5.922;2023-03-17T12:24:25;100647.53;;;17.00;55.06
57568;BME280;43403;51.948;5.922;2023-03-17T12:27:08;100653.03;;;16.99;55.19
57568;BME280;43403;51.948;5.922;2023-03-17T12:29:48;100646.88;;;17.27;56.02
57568;BME280;43403;51.948;5.922;2023-03-17T12:34:55;100649.88;;;17.52;54.97
57568;BME280;43403;51.948;5.922;2023-03-17T12:37:25;100645.28;;;17.67;54.50
57568;BME280;43403;51.948;5.922;2023-03-17T12:40:24;100644.22;;;17.55;52.53
57568;BME280;43403;51.948;5.922;2023-03-17T12:43:05;100657.50;;;17.62;53.24
57568;BME280;43403;51.948;5.922;2023-03-17T12:45:59;100643.66;;;17.66;53.72
57568;BME280;43403;51.948;5.922;2023-03-17T12:51:41;100640.28;;;17.86;53.40
57568;BME280;43403;51.948;5.922;2023-03-17T12:54:33;100637.50;;;18.07;53.87
57568;BME280;43403;51.948;5.922;2023-03-17T12:57:17;100635.66;;;18.08;53.88
57568;BME280;43403;51.948;5.922;2023-03-17T12:59:55;100646.91;;;18.10;53.03
57568;BME280;43403;51.948;5.922;2023-03-17T13:02:33;100645.06;;;18.10;52.32
57568;BME280;43403;51.948;5.922;2023-03-17T13:05:05;100644.84;;;18.12;52.66
57568;BME280;43403;51.948;5.922;2023-03-17T13:20:44;100626.47;;;18.04;53.26
57568;BME280;43403;51.948;5.922;2023-03-17T13:23:18;100633.34;;;17.91;52.92
57568;BME280;43403;51.948;5.922;2023-03-17T13:25:49;100622.78;;;18.05;54.76
57568;BME280;43403;51.948;5.922;2023-03-17T13:30:55;100627.50;;;18.09;52.53
57568;BME280;43403;51.948;5.922;2023-03-17T13:33:30;100617.13;;;18.21;53.19
57568;BME280;43403;51.948;5.922;2023-03-17T13:36:20;100616.88;;;18.23;52.86
57568;BME280;43403;51.948;5.922;2023-03-17T13:44:56;100620.16;;;18.25;53.45
57568;BME280;43403;51.948;5.922;2023-03-17T13:47:38;100621.41;;;18.29;52.58
57568;BME280;43403;51.948;5.922;2023-03-17T13:50:16;100619.75;;;18.14;53.61
57568;BME280;43403;51.948;5.922;2023-03-17T13:52:49;100626.91;;;18.21;54.55
57568;BME280;43403;51.948;5.922;2023-03-17T13:57:55;100605.88;;;18.32;54.54
57568;BME280;43403;51.948;5.922;2023-03-17T14:00:43;100616.13;;;18.55;54.51
57568;BME280;43403;51.948;5.922;2023-03-17T14:03:19;100610.59;;;18.64;54.18
57568;BME280;43403;51.948;5.922;2023-03-17T14:05:50;100605.50;;;18.69;54.35
57568;BME280;43403;51.948;5.922;2023-03-17T14:08:23;100592.41;;;18.54;52.87
57568;BME280;43403;51.948;5.922;2023-03-17T14:10:54;100582.59;;;18.48;53.56
57568;BME280;43403;51.948;5.922;2023-03-17T14:13:27;100581.59;;;18.49;52.97
57568;BME280;43403;51.948;5.922;2023-03-17T14:16:02;100582.22;;;18.64;54.44
57568;BME280;43403;51.948;5.922;2023-03-17T14:18:35;100585.28;;;18.81;54.67
57568;BME280;43403;51.948;5.922;2023-03-17T14:21:05;100595.47;;;18.71;53.76
57568;BME280;43403;51.948;5.922;2023-03-17T14:23:36;100593.03;;;18.63;53.71
57568;BME280;43403;51.948;5.922;2023-03-17T14:26:03;100588.50;;;18.70;56.06
57568;BME280;43403;51.948;5.922;2023-03-17T14:28:32;100588.34;;;18.85;55.81